createdAt,value
2023-03-17T00:13:18.078Z,4.51
2023-03-17T00:27:29.417Z,4.32
2023-03-17T00:41:43.874Z,4.22
2023-03-17T00:55:51.576Z,4.05
2023-03-17T01:10:03.491Z,4.11
2023-03-17T01:24:16.728Z,4.33
2023-03-17T01:38:30.761Z,4.31
2023-03-17T01:52:38.852Z,4.32
2023-03-17T02:06:58.551Z,4.11
2023-03-17T02:21:02.394Z,3.92
2023-03-17T02:35:11.960Z,3.91
2023-03-17T02:49:24.130Z,3.92
2023-03-17T03:03:34.125Z,3.72
2023-03-17T03:17:45.049Z,3.45
2023-03-17T03:31:56.357Z,3.41
2023-03-17T03:46:09.253Z,3.31
2023-03-17T04:00:20.181Z,3.12
2023-03-17T04:14:32.429Z,3.04
2023-03-17T04:28:43.654Z,2.93
2023-03-17T04:42:55.779Z,2.8
2023-03-17T04:57:07.369Z,2.59
2023-03-17T05:11:18.773Z,2.31
2023-03-17T05:25:31.471Z,2.72
2023-03-17T05:39:44.007Z,2.98
2023-03-17T05:53:56.957Z,3.11
2023-03-17T06:08:09.359Z,3.08
2023-03-17T06:22:21.408Z,3.1
2023-03-17T06:36:33.377Z,3.07
2023-03-17T06:50:45.247Z,3.25
2023-03-17T07:04:58.352Z,3.67
2023-03-17T07:19:12.627Z,4.18
2023-03-17T07:19:44.844Z,4.28
2023-03-17T07:33:26.664Z,4.91
2023-03-17T07:39:56.397Z,5
2023-03-17T07:47:41.143Z,5.46
2023-03-17T07:50:32.664Z,5.82
2023-03-17T08:01:56.076Z,6.50
2023-03-17T08:02:12.312Z,6.57
2023-03-17T08:03:14.662Z,6.66
2023-03-17T08:04:17.104Z,6.67
2023-03-17T08:16:11.656Z,7.38
2023-03-17T08:21:15.953Z,7.58
2023-03-17T08:22:19.521Z,7.64
2023-03-17T08:23:21.829Z,7.72
2023-03-17T08:24:25.951Z,7.80
2023-03-17T08:25:28.327Z,7.85
2023-03-17T08:26:30.721Z,7.89
2023-03-17T08:30:27.622Z,8.09
2023-03-17T08:30:42.112Z,8.15
2023-03-17T08:31:46.517Z,8.19
2023-03-17T08:32:47.034Z,8.25
2023-03-17T08:33:49.425Z,8.32
2023-03-17T08:34:51.849Z,8.37
2023-03-17T08:35:54.355Z,8.44
2023-03-17T08:36:56.764Z,8.50
2023-03-17T08:37:59.205Z,8.59
2023-03-17T08:39:03.266Z,8.64
2023-03-17T08:40:07.194Z,8.72
2023-03-17T08:41:11.156Z,8.82
2023-03-17T08:42:13.429Z,8.91
2023-03-17T08:43:15.808Z,8.98
2023-03-17T08:44:19.824Z,9.04
2023-03-17T08:45:23.745Z,9.13
2023-03-17T08:46:26.111Z,9.21
2023-03-17T08:47:28.463Z,9.27
2023-03-17T08:48:30.916Z,9.34
2023-03-17T08:49:33.449Z,9.41
2023-03-17T08:50:37.523Z,9.48
2023-03-17T08:51:39.829Z,9.56
2023-03-17T08:52:42.201Z,9.62
2023-03-17T08:53:46.413Z,9.72
2023-03-17T08:54:48.875Z,9.77
2023-03-17T08:55:51.301Z,9.83
2023-03-17T08:56:53.701Z,9.87
2023-03-17T08:57:57.753Z,9.92
2023-03-17T08:59:00.147Z,9.98
2023-03-17T09:00:02.629Z,10.02
2023-03-17T09:01:05.397Z,10.07
2023-03-17T09:02:09.450Z,10.10
2023-03-17T09:03:11.761Z,10.17
2023-03-17T09:04:14.386Z,10.20
2023-03-17T09:05:16.976Z,10.27
2023-03-17T09:06:19.310Z,10.30
2023-03-17T09:07:23.342Z,10.34
2023-03-17T09:08:25.776Z,10.40
2023-03-17T09:09:28.225Z,10.43
2023-03-17T09:10:30.919Z,10.47
2023-03-17T09:11:34.750Z,10.50
2023-03-17T09:12:38.683Z,10.51
2023-03-17T09:13:40.962Z,10.55
2023-03-17T09:14:45.896Z,10.61
2023-03-17T09:15:48.983Z,10.58
2023-03-17T09:16:50.627Z,10.63
2023-03-17T09:17:53.120Z,10.66
2023-03-17T09:18:55.579Z,10.71
2023-03-17T09:19:58.055Z,10.75
2023-03-17T09:21:02.097Z,10.77
2023-03-17T09:22:07.141Z,10.81
2023-03-17T09:23:11.003Z,10.89
2023-03-17T09:24:13.300Z,10.95
2023-03-17T09:25:15.841Z,10.99
2023-03-17T09:26:18.176Z,11.03
2023-03-17T09:27:20.659Z,11.06
2023-03-17T09:28:24.648Z,11.09
2023-03-17T09:29:27.055Z,11.13
2023-03-17T09:30:31.338Z,11.18
2023-03-17T09:31:33.506Z,11.20
2023-03-17T09:32:35.935Z,11.24
2023-03-17T09:33:38.317Z,11.25
2023-03-17T09:34:40.830Z,11.29
2023-03-17T09:35:44.902Z,11.33
2023-03-17T09:36:47.308Z,11.35
2023-03-17T09:37:51.280Z,11.37
2023-03-17T09:38:55.175Z,11.39
2023-03-17T09:39:57.555Z,11.43
2023-03-17T09:41:00.028Z,11.46
2023-03-17T09:42:04.078Z,11.51
2023-03-17T09:43:08.157Z,11.54
2023-03-17T09:44:10.409Z,11.53
2023-03-17T09:45:14.470Z,11.56
2023-03-17T09:46:16.809Z,11.60
2023-03-17T09:47:19.249Z,11.62
2023-03-17T09:48:21.741Z,11.65
2023-03-17T09:49:25.795Z,11.69
2023-03-17T09:50:29.944Z,11.72
2023-03-17T09:51:33.645Z,11.78
2023-03-17T09:52:35.990Z,11.84
2023-03-17T09:53:38.450Z,11.86
2023-03-17T09:54:42.483Z,11.90
2023-03-17T09:55:44.822Z,11.92
2023-03-17T09:56:47.245Z,11.95
2023-03-17T09:57:49.733Z,11.98
2023-03-17T09:58:53.875Z,12.01
2023-03-17T09:59:57.749Z,12.05
2023-03-17T10:01:01.622Z,12.10
2023-03-17T10:02:05.672Z,12.12
2023-03-17T10:03:09.493Z,12.14
2023-03-17T10:04:11.792Z,12.15
2023-03-17T10:05:14.231Z,12.17
2023-03-17T10:06:16.708Z,12.20
2023-03-17T10:07:19.143Z,12.17
2023-03-17T10:09:27.008Z,12.19
2023-03-17T10:10:28.101Z,12.22
2023-03-17T10:11:30.518Z,12.20
2023-03-17T10:12:34.684Z,12.24
2023-03-17T10:14:40.943Z,12.23
2023-03-17T10:15:44.956Z,12.27
2023-03-17T10:16:48.848Z,12.30
2023-03-17T10:17:51.171Z,12.33
2023-03-17T10:19:57.740Z,12.36
2023-03-17T10:21:01.583Z,12.41
2023-03-17T10:22:03.915Z,12.44
2023-03-17T10:23:08.022Z,12.50
2023-03-17T10:24:10.351Z,12.53
2023-03-17T10:25:12.797Z,12.51
2023-03-17T10:26:16.775Z,12.55
2023-03-17T10:27:19.194Z,12.59
2023-03-17T10:28:23.228Z,12.64
2023-03-17T10:29:25.614Z,12.70
2023-03-17T10:30:30.003Z,12.73
2023-03-17T10:31:33.774Z,12.78
2023-03-17T10:32:36.076Z,12.82
2023-03-17T10:33:40.126Z,12.84
2023-03-17T10:34:42.425Z,12.87
2023-03-17T10:35:45.063Z,12.84
2023-03-17T10:36:47.357Z,12.89
2023-03-17T10:38:53.713Z,12.95
2023-03-17T10:39:57.842Z,12.90
2023-03-17T10:41:00.198Z,12.92
2023-03-17T10:42:04.322Z,12.97
2023-03-17T10:43:08.206Z,13.01
2023-03-17T10:45:14.948Z,13.05
2023-03-17T10:46:17.400Z,13.01
2023-03-17T10:47:19.818Z,12.95
2023-03-17T10:48:23.748Z,12.99
2023-03-17T10:49:26.137Z,13.01
2023-03-17T10:50:28.673Z,13.05
2023-03-17T10:51:32.627Z,13.01
2023-03-17T10:52:34.823Z,13.08
2023-03-17T10:54:41.354Z,13.09
2023-03-17T10:55:43.698Z,13.14
2023-03-17T10:56:47.765Z,13.21
2023-03-17T10:57:50.095Z,13.24
2023-03-17T10:58:54.137Z,13.25
2023-03-17T10:59:56.518Z,13.29
2023-03-17T11:00:58.949Z,13.27
2023-03-17T11:02:01.416Z,13.29
2023-03-17T11:03:05.466Z,13.35
2023-03-17T11:04:07.866Z,13.37
2023-03-17T11:06:14.285Z,13.41
2023-03-17T11:07:18.165Z,13.45
2023-03-17T11:08:22.073Z,13.46
2023-03-17T11:09:26.007Z,13.51
2023-03-17T11:10:30.273Z,13.54
2023-03-17T11:11:32.311Z,13.56
2023-03-17T11:12:36.320Z,13.53
2023-03-17T11:13:38.589Z,13.57
2023-03-17T11:14:41.086Z,13.56
2023-03-17T11:15:43.522Z,13.62
2023-03-17T11:16:46.086Z,13.64
2023-03-17T11:17:48.592Z,13.65
2023-03-17T11:18:52.658Z,13.62
2023-03-17T11:19:55.062Z,13.66
2023-03-17T11:20:57.412Z,13.64
2023-03-17T11:21:59.833Z,13.63
2023-03-17T11:23:02.361Z,13.60
2023-03-17T11:24:04.883Z,13.62
2023-03-17T11:25:08.983Z,13.66
2023-03-17T11:26:12.833Z,13.65
2023-03-17T11:27:16.778Z,13.69
2023-03-17T11:28:19.090Z,13.68
2023-03-17T11:29:23.304Z,13.71
2023-03-17T11:30:27.224Z,13.68
2023-03-17T11:31:31.248Z,13.72
2023-03-17T11:32:35.394Z,13.77
2023-03-17T11:33:39.444Z,13.78
2023-03-17T11:34:41.859Z,13.79
2023-03-17T11:35:44.331Z,13.82
2023-03-17T11:36:48.368Z,13.84
2023-03-17T11:37:50.592Z,13.86
2023-03-17T11:38:53.099Z,13.91
2023-03-17T11:39:57.139Z,13.94
2023-03-17T11:41:01.119Z,13.96
2023-03-17T11:42:05.072Z,13.97
2023-03-17T11:43:07.438Z,14.01
2023-03-17T11:44:10.021Z,14.02
2023-03-17T11:45:12.549Z,14.05
2023-03-17T11:46:15.077Z,14.11
2023-03-17T11:47:17.427Z,14.14
2023-03-17T11:48:20.048Z,14.16
2023-03-17T11:49:24.114Z,14.19
2023-03-17T11:50:28.019Z,14.22
2023-03-17T11:51:30.417Z,14.26
2023-03-17T11:52:32.856Z,14.29
2023-03-17T11:53:35.366Z,14.32
2023-03-17T11:54:39.773Z,14.34
2023-03-17T11:56:47.832Z,14.37
2023-03-17T11:57:50.306Z,14.35
2023-03-17T11:58:52.719Z,14.39
2023-03-17T11:59:55.208Z,14.42
2023-03-17T12:02:01.830Z,14.44
2023-03-17T12:03:05.984Z,14.43
2023-03-17T12:04:09.847Z,14.40
2023-03-17T12:05:13.754Z,14.37
2023-03-17T12:06:16.127Z,14.35
2023-03-17T12:07:20.191Z,14.34
2023-03-17T12:08:22.535Z,14.35
2023-03-17T12:10:29.066Z,14.34
2023-03-17T12:12:43.483Z,14.32
2023-03-17T12:13:45.409Z,14.33
2023-03-17T12:14:47.850Z,14.36
2023-03-17T12:15:51.928Z,14.38
2023-03-17T12:16:54.235Z,14.34
2023-03-17T12:17:56.796Z,14.36
2023-03-17T12:19:08.881Z,14.33
2023-03-17T12:20:12.421Z,14.38
2023-03-17T12:21:14.732Z,14.43
2023-03-17T12:22:17.134Z,14.45
2023-03-17T12:23:19.751Z,14.42
2023-03-17T12:24:23.669Z,14.44
2023-03-17T12:25:27.572Z,14.45
2023-03-17T12:26:29.822Z,14.48
2023-03-17T12:27:33.956Z,14.49
2023-03-17T12:28:36.323Z,14.48
2023-03-17T12:29:40.321Z,14.49
2023-03-17T12:30:44.428Z,14.52
2023-03-17T12:31:46.756Z,14.54
2023-03-17T12:33:53.310Z,14.58
2023-03-17T12:34:57.232Z,14.59
2023-03-17T12:35:59.756Z,14.60
2023-03-17T12:37:01.966Z,14.61
2023-03-17T12:38:04.472Z,14.63
2023-03-17T12:40:10.986Z,14.62
2023-03-17T12:41:13.318Z,14.60
2023-03-17T12:42:17.344Z,14.62
2023-03-17T12:43:19.740Z,14.63
2023-03-17T12:44:23.799Z,14.65
2023-03-17T12:45:27.643Z,14.67
2023-03-17T12:46:30.161Z,14.65
2023-03-17T12:47:32.496Z,14.63
2023-03-17T12:48:36.571Z,14.66
2023-03-17T12:49:38.812Z,14.65
2023-03-17T12:50:42.848Z,14.66
2023-03-17T12:51:46.781Z,14.67
2023-03-17T12:52:50.776Z,14.70
2023-03-17T12:53:53.085Z,14.67
2023-03-17T12:54:57.126Z,14.71
2023-03-17T12:56:01.044Z,14.68
2023-03-17T12:57:03.445Z,14.69
2023-03-17T12:58:05.935Z,14.68
2023-03-17T12:59:08.360Z,14.71
2023-03-17T13:00:10.824Z,14.70
2023-03-17T13:02:17.221Z,14.72
2023-03-17T13:03:19.804Z,14.71
2023-03-17T13:04:22.241Z,14.69
2023-03-17T13:05:24.661Z,14.68
2023-03-17T13:06:27.130Z,14.69
2023-03-17T13:15:59.014Z,14.38
2023-03-17T13:18:05.492Z,14.41
2023-03-17T13:19:09.412Z,14.45
2023-03-17T13:20:13.431Z,14.49
2023-03-17T13:21:15.767Z,14.54
2023-03-17T13:22:19.847Z,14.56
2023-03-17T13:23:23.876Z,14.58
2023-03-17T13:24:26.199Z,14.61
2023-03-17T13:25:28.537Z,14.63
2023-03-17T13:26:31.067Z,14.61
2023-03-17T13:27:35.072Z,14.62
2023-03-17T13:28:39.006Z,14.63
2023-03-17T13:29:42.887Z,14.66
2023-03-17T13:30:46.862Z,14.68
2023-03-17T13:31:49.298Z,14.66
2023-03-17T13:32:51.768Z,14.70
2023-03-17T13:33:54.204Z,14.71
2023-03-17T13:34:58.304Z,14.70
2023-03-17T13:36:00.629Z,14.71
2023-03-17T13:37:04.788Z,14.73
2023-03-17T13:38:06.984Z,14.75
2023-03-17T13:39:19.106Z,14.77
2023-03-17T13:40:14.940Z,14.81
2023-03-17T13:42:22.795Z,14.84
2023-03-17T13:43:26.777Z,14.86
2023-03-17T13:44:30.643Z,14.89
2023-03-17T13:45:33.306Z,14.91
2023-03-17T13:47:37.983Z,14.92
2023-03-17T13:48:42.085Z,14.91
2023-03-17T13:49:46.025Z,14.94
2023-03-17T13:50:53.412Z,14.95
2023-03-17T13:52:00.145Z,14.96
2023-03-17T13:54:03.513Z,14.95
2023-03-17T13:55:05.829Z,14.94
2023-03-17T13:56:08.308Z,14.93
2023-03-17T13:57:12.396Z,14.92
2023-03-17T13:58:16.350Z,14.90
2023-03-17T13:59:20.280Z,14.92
2023-03-17T14:00:22.620Z,14.91
2023-03-17T14:01:26.739Z,14.89
2023-03-17T14:02:30.646Z,14.88
2023-03-17T14:03:33.087Z,14.93
2023-03-17T14:04:37.015Z,14.91
2023-03-17T14:06:43.499Z,14.92
2023-03-17T14:07:47.432Z,14.93
2023-03-17T14:08:49.716Z,14.94
2023-03-17T14:09:53.847Z,14.95
2023-03-17T14:10:56.189Z,14.91
2023-03-17T14:13:02.702Z,14.90
2023-03-17T14:14:05.009Z,14.91
2023-03-17T14:15:08.459Z,14.92
2023-03-17T14:17:13.960Z,14.93
2023-03-17T14:18:17.816Z,14.91
2023-03-17T14:19:20.198Z,14.92
2023-03-17T14:21:25.072Z,14.93
2023-03-17T14:22:29.195Z,14.92
2023-03-17T14:23:33.096Z,14.91
2023-03-17T14:26:43.366Z,14.90
2023-03-17T14:27:47.351Z,14.89
2023-03-17T14:28:49.688Z,14.90
2023-03-17T14:29:52.273Z,14.88
2023-03-17T14:30:54.643Z,14.87
2023-03-17T14:31:57.094Z,14.84
2023-03-17T14:33:01.270Z,14.85
2023-03-17T14:34:05.111Z,14.83
2023-03-17T14:35:09.107Z,14.81
2023-03-17T14:36:13.696Z,14.80
2023-03-17T14:37:13.841Z,14.81
2023-03-17T14:38:16.284Z,14.80
2023-03-17T14:39:18.627Z,14.77
2023-03-17T14:40:21.154Z,14.74
2023-03-17T14:42:26.062Z,14.73
2023-03-17T14:43:28.684Z,14.72
2023-03-17T14:44:32.606Z,14.71
2023-03-17T14:48:45.589Z,14.72
2023-03-17T14:49:47.864Z,14.70
2023-03-17T14:50:50.458Z,14.68
2023-03-17T14:52:56.680Z,14.69
2023-03-17T14:54:00.768Z,14.67
2023-03-17T14:55:03.105Z,14.66
2023-03-17T14:56:05.582Z,14.64
2023-03-17T14:57:08.064Z,14.61
2023-03-17T15:06:41.558Z,14.26
2023-03-17T15:08:46.469Z,14.28
2023-03-17T15:09:50.499Z,14.30
2023-03-17T15:10:54.405Z,14.33
2023-03-17T15:11:56.760Z,14.37
2023-03-17T15:12:59.231Z,14.38
2023-03-17T15:14:01.770Z,14.42
2023-03-17T15:16:06.666Z,14.43
2023-03-17T15:18:11.578Z,14.44
2023-03-17T15:20:18.118Z,14.45
2023-03-17T15:22:22.937Z,14.46
2023-03-17T15:26:34.263Z,14.45
2023-03-17T15:28:40.652Z,14.44
2023-03-17T15:30:48.322Z,14.42
2023-03-17T15:32:52.139Z,14.43
2023-03-17T15:33:56.136Z,14.41
2023-03-17T15:36:00.868Z,14.40
2023-03-17T15:37:04.961Z,14.39
2023-03-17T15:39:09.807Z,14.37
2023-03-17T15:40:12.032Z,14.36
2023-03-17T15:41:14.534Z,14.35
2023-03-17T15:42:18.512Z,14.33
2023-03-17T15:43:19.422Z,14.32
2023-03-17T15:44:23.500Z,14.29
2023-03-17T15:46:30.044Z,14.26
2023-03-17T15:48:34.773Z,14.22
2023-03-17T15:51:43.503Z,14.18
2023-03-17T15:52:45.996Z,14.14
2023-03-17T15:53:49.965Z,14.15
2023-03-17T15:55:54.790Z,14.12
2023-03-17T15:56:57.077Z,14.10
2023-03-17T15:58:01.119Z,14.06
2023-03-17T16:00:07.502Z,14.04
2023-03-17T16:01:09.870Z,14.03
2023-03-17T16:02:12.242Z,14.01
2023-03-17T16:04:18.731Z,13.99
2023-03-17T16:06:25.054Z,13.97
2023-03-17T16:07:27.408Z,13.93
2023-03-17T16:08:29.746Z,13.92
2023-03-17T16:09:32.272Z,13.90
2023-03-17T16:11:40.382Z,13.88
2023-03-17T16:12:41.113Z,13.86
2023-03-17T16:13:45.187Z,13.85
2023-03-17T16:14:47.500Z,13.82
2023-03-17T16:15:51.566Z,13.81
2023-03-17T16:16:55.479Z,13.80
2023-03-17T16:17:57.855Z,13.79
2023-03-17T16:19:00.473Z,13.77
2023-03-17T16:20:03.978Z,13.75
2023-03-17T16:21:06.342Z,13.73
2023-03-17T16:22:08.723Z,13.74
2023-03-17T16:23:12.907Z,13.72
2023-03-17T16:24:15.229Z,13.74
2023-03-17T16:25:17.693Z,13.73
2023-03-17T16:26:20.170Z,13.71
2023-03-17T16:27:22.635Z,13.70
2023-03-17T16:28:26.688Z,13.68
2023-03-17T16:30:33.422Z,13.67
2023-03-17T16:33:40.393Z,13.65
2023-03-17T16:34:42.791Z,13.64
2023-03-17T16:35:50.986Z,13.62
2023-03-17T16:36:53.089Z,13.64
2023-03-17T16:38:58.026Z,13.61
2023-03-17T16:40:02.223Z,13.59
2023-03-17T16:41:04.388Z,13.58
2023-03-17T16:42:06.833Z,13.55
2023-03-17T16:43:22.678Z,13.52
2023-03-17T16:44:13.283Z,13.50
2023-03-17T16:45:15.717Z,13.47
2023-03-17T16:46:18.220Z,13.45
2023-03-17T16:47:20.576Z,13.43
2023-03-17T16:48:24.640Z,13.40
2023-03-17T16:48:26.690Z,13.26
2023-03-17T16:56:48.307Z,13.23
2023-03-17T16:58:53.000Z,13.20
2023-03-17T16:59:55.434Z,13.16
2023-03-17T17:00:57.868Z,13.12
2023-03-17T17:02:00.435Z,13.09
2023-03-17T17:02:34.308Z,12.89
2023-03-17T17:11:33.778Z,12.72
2023-03-17T17:16:46.427Z,12.66
2023-03-17T17:21:06.810Z,12.47
2023-03-17T17:22:09.305Z,12.45
2023-03-17T17:23:13.425Z,12.46
2023-03-17T17:24:17.370Z,12.48
2023-03-17T17:30:58.578Z,12.22
2023-03-17T17:33:48.027Z,12.15
2023-03-17T17:43:23.802Z,11.85
2023-03-17T17:45:10.792Z,11.81
2023-03-17T17:52:56.167Z,11.64
2023-03-17T18:02:30.261Z,11.62
2023-03-17T18:12:04.862Z,11.61
2023-03-17T18:21:38.929Z,11.44
2023-03-17T18:31:14.922Z,11.28
2023-03-17T18:40:48.499Z,11.19
2023-03-17T18:50:23.847Z,11.22
2023-03-17T18:56:11.357Z,11.19
2023-03-17T18:59:56.842Z,11.14
2023-03-17T19:09:30.603Z,11.09
2023-03-17T19:19:03.532Z,11.17
2023-03-17T19:24:38.883Z,11.09
2023-03-17T19:38:12.066Z,11.04
2023-03-17T19:38:46.863Z,10.93
2023-03-17T19:47:47.473Z,10.83
2023-03-17T19:52:59.451Z,10.68
2023-03-17T20:07:13.352Z,10.64
2023-03-17T20:21:21.153Z,10.57
2023-03-17T20:35:33.564Z,10.43
2023-03-17T20:45:11.500Z,10.41
2023-03-17T21:04:18.014Z,10.45
2023-03-17T21:23:28.367Z,10.39
2023-03-17T21:33:00.783Z,10.38
2023-03-17T21:42:34.847Z,10.30
2023-03-17T21:52:10.773Z,10.20
2023-03-17T22:01:43.036Z,10.09
2023-03-17T22:11:18.830Z,9.98
2023-03-17T22:20:52.810Z,9.91
2023-03-17T22:30:25.152Z,9.88
2023-03-17T22:39:59.438Z,9.94
2023-03-17T22:49:33.791Z,10.03
2023-03-17T22:59:08.110Z,10.01
2023-03-17T23:08:44.090Z,9.94
2023-03-17T23:18:16.629Z,9.88
2023-03-17T23:37:24.527Z,9.98
2023-03-17T23:46:58.610Z,9.96
2023-03-17T23:56:34.106Z,9.85
